Terminal Aerodrome Forecast
Issued by NWS Twin Cities, MN

Home | Current Version | Previous Version | Graphics & Text | Print | Product List | Glossary On
Versions: 1 2 3 4 5 6 7 8 9 10 11 12 13 14 15 16 17 18 19 20 21 22
000
FTUS43 KMPX 240500 RRA
TAFSTC
TAF
KSTC 240542Z 2406/2506 31016G23KT P6SM OVC020
     FM240800 32017G24KT 6SM -FZDZ BR SCT008 OVC012
     FM241200 31018G30KT 6SM -SHSN OVC015
     FM250100 31016G25KT P6SM SCT015=

USA.gov is the U.S. government's official web portal to all federal, state and local government web resources and services.